»·PEaware :: AAL399 KGEG-KSEA

AAL399 :: KGEG-KSEA

FLIGHT INFORMATION

Flight Status: Arrived
Operator:
American Airlines
More flights by this operator :: More flights under this callsign
Pilot: Sergei F. (8485)
Aircraft: AIRBUS A320
(A320)
More flights by this aircraft type
Origin: KGEG Spokane Intl
United States
Destination: KSEA Seattle-Tacoma Intl
United States
More flights between these airports :: More routes between these airports
Route: +TEMPL GLASR1
File this flight plan on PilotEdge
Remarks:
Altitude:
(Current/Filed)
18,000ft
Speed:
(Current/Filed)
300kts
Departed: 03-Aug-18 07:18 PM
Arrived: 03-Aug-18 08:02 PM
Distance/Time
Traveled:
193nm/0:44
Distance/Time
To Go:
Arrived

Flight Plot

Page will automatically refresh every two minutes.

Flight plan parsing failed; only flown route is shown


Map Options




Map Legend


Flown Route
Filed Route
Departure Airport
Arrival Airport
Navaid (VOR, NDB)
Fix

Horizontal Profiles

Position Reports

Time Latitude Longitude Heading Altitude Ground
Speed
03-Aug-18 18:55 47.623364 -117.539254 0 2367ft 0kts
03-Aug-18 18:56 47.623364 -117.539254 0 2367ft 0kts
03-Aug-18 18:57 47.623364 -117.539254 0 2367ft 0kts
03-Aug-18 18:58 47.623364 -117.539254 0 2367ft 0kts
03-Aug-18 18:59 47.623364 -117.539254 0 2367ft 0kts
03-Aug-18 19:00 47.623364 -117.539254 0 2367ft 0kts
03-Aug-18 19:01 47.623364 -117.539254 0 2367ft 0kts
03-Aug-18 19:02 47.623364 -117.539254 0 2367ft 0kts
03-Aug-18 19:03 47.623364 -117.539254 0 2367ft 0kts
03-Aug-18 19:04 47.623364 -117.539254 0 2367ft 0kts
03-Aug-18 19:05 47.623364 -117.539254 0 2367ft 0kts
03-Aug-18 19:06 47.623364 -117.539254 0 2367ft 0kts
03-Aug-18 19:07 47.623220 -117.539256 0 2367ft 2kts
03-Aug-18 19:08 47.622692 -117.539541 63 2367ft 2kts
03-Aug-18 19:09 47.622648 -117.539880 90 2368ft 0kts
03-Aug-18 19:10 47.622648 -117.539879 90 2368ft 0kts
03-Aug-18 19:11 47.622648 -117.539879 90 2368ft 0kts
03-Aug-18 19:12 47.622628 -117.538358 94 2365ft 6kts
03-Aug-18 19:13 47.621838 -117.536513 70 2365ft 5kts
03-Aug-18 19:14 47.623608 -117.533760 45 2362ft 14kts
03-Aug-18 19:15 47.626227 -117.529817 45 2355ft 12kts
03-Aug-18 19:16 47.629432 -117.524997 45 2348ft 15kts
03-Aug-18 19:17 47.631935 -117.521230 45 2334ft 8kts
03-Aug-18 19:18 47.631667 -117.519147 136 2329ft 9kts
03-Aug-18 19:19 47.628276 -117.522694 225 2345ft 92kts
03-Aug-18 19:20 47.599872 -117.564668 221 3959ft 206kts
03-Aug-18 19:21 47.551505 -117.625893 221 6359ft 266kts
03-Aug-18 19:22 47.496639 -117.702853 250 9283ft 284kts
03-Aug-18 19:23 47.505972 -117.822518 282 11318ft 330kts
03-Aug-18 19:24 47.526413 -117.967458 282 12265ft 390kts
03-Aug-18 19:25 47.548943 -118.128348 282 13882ft 409kts
03-Aug-18 19:26 47.571948 -118.293997 282 15600ft 418kts
03-Aug-18 19:27 47.595381 -118.464317 282 17120ft 427kts
03-Aug-18 19:28 47.618940 -118.637594 282 18028ft 430kts
03-Aug-18 19:29 47.641315 -118.804140 281 18038ft 431kts
03-Aug-18 19:30 47.664667 -118.979837 282 18037ft 442kts
03-Aug-18 19:31 47.688272 -119.159879 282 18034ft 445kts
03-Aug-18 19:32 47.711039 -119.335834 282 18029ft 445kts
03-Aug-18 19:33 47.732531 -119.516661 278 18029ft 445kts
03-Aug-18 19:34 47.746683 -119.695679 277 18030ft 445kts
03-Aug-18 19:35 47.760871 -119.878141 277 18039ft 445kts
03-Aug-18 19:36 47.774750 -120.060508 277 18049ft 444kts
03-Aug-18 19:37 47.788363 -120.243294 277 18048ft 444kts
03-Aug-18 19:38 47.801640 -120.425589 277 18048ft 444kts
03-Aug-18 19:39 47.814633 -120.608047 277 18048ft 444kts
03-Aug-18 19:40 47.826719 -120.781616 276 18049ft 444kts
03-Aug-18 19:41 47.839142 -120.964511 276 18049ft 444kts
03-Aug-18 19:42 47.850910 -121.144542 277 18171ft 433kts
03-Aug-18 19:43 47.862453 -121.320102 277 18204ft 427kts
03-Aug-18 19:44 47.873052 -121.486628 277 18203ft 428kts
03-Aug-18 19:45 47.883062 -121.650639 276 17029ft 357kts
03-Aug-18 19:46 47.839722 -121.767874 224 15613ft 344kts
03-Aug-18 19:47 47.769064 -121.862904 225 14556ft 341kts
03-Aug-18 19:48 47.699193 -121.957019 225 13639ft 337kts
03-Aug-18 19:49 47.631704 -122.047678 225 12765ft 333kts
03-Aug-18 19:50 47.564976 -122.136925 225 12067ft 309kts
03-Aug-18 19:51 47.482700 -122.163231 180 11623ft 313kts
03-Aug-18 19:52 47.408778 -122.199523 231 10856ft 272kts
03-Aug-18 19:53 47.348426 -122.245518 179 10175ft 248kts
03-Aug-18 19:54 47.283679 -122.239065 177 8878ft 221kts
03-Aug-18 19:55 47.227651 -122.233692 177 7227ft 194kts
03-Aug-18 19:56 47.205433 -122.274590 319 5578ft 165kts
03-Aug-18 19:57 47.248297 -122.292296 345 4518ft 154kts
03-Aug-18 19:58 47.287851 -122.306424 345 2888ft 144kts
03-Aug-18 19:59 47.326445 -122.310948 357 1995ft 142kts
03-Aug-18 20:00 47.365615 -122.311467 358 1772ft 141kts
03-Aug-18 20:01 47.404705 -122.311614 358 1056ft 140kts
03-Aug-18 20:02 47.442970 -122.311166 358 380ft 131kts
03-Aug-18 20:03 47.457983 -122.310433 27 427ft 25kts
03-Aug-18 20:04 47.459883 -122.306344 145 441ft 5kts
03-Aug-18 20:05 47.456840 -122.306193 180 440ft 17kts
03-Aug-18 20:06 47.451719 -122.306246 180 420ft 21kts
03-Aug-18 20:07 47.448290 -122.306245 167 403ft 4kts
03-Aug-18 20:08 47.448339 -122.304234 81 403ft 5kts
03-Aug-18 20:09 47.448401 -122.303559 82 403ft 0kts
03-Aug-18 20:10 47.448401 -122.303560 82 403ft 0kts

Navigation Log

Ident Type
Flight plan parsing failed, navigation log unavailable